sensor_id;sensor_type;location;lat;lon;timestamp;pressure;altitude;pressure_sealevel;temperature;humidity
2192;BME280;1102;49.718;11.902;2023-04-08T00:00:46;96370.91;;;3.79;100.00
2192;BME280;1102;49.718;11.902;2023-04-08T00:03:12;96394.59;;;3.88;100.00
2192;BME280;1102;49.718;11.902;2023-04-08T00:05:40;96395.22;;;3.99;100.00
2192;BME280;1102;49.718;11.902;2023-04-08T00:08:06;96393.63;;;4.03;100.00
2192;BME280;1102;49.718;11.902;2023-04-08T00:10:33;96385.53;;;3.99;100.00
2192;BME280;1102;49.718;11.902;2023-04-08T00:13:00;96400.13;;;4.05;100.00
2192;BME280;1102;49.718;11.902;2023-04-08T00:15:27;96365.41;;;3.81;100.00
2192;BME280;1102;49.718;11.902;2023-04-08T00:17:54;96379.91;;;3.92;100.00
2192;BME280;1102;49.718;11.902;2023-04-08T00:20:22;96398.00;;;3.89;100.00
2192;BME280;1102;49.718;11.902;2023-04-08T00:22:49;96403.16;;;3.94;100.00
2192;BME280;1102;49.718;11.902;2023-04-08T00:25:15;96367.69;;;3.88;100.00
2192;BME280;1102;49.718;11.902;2023-04-08T00:27:42;96361.91;;;3.85;100.00
2192;BME280;1102;49.718;11.902;2023-04-08T00:30:09;96398.13;;;3.97;100.00
2192;BME280;1102;49.718;11.902;2023-04-08T00:32:37;96358.94;;;3.73;100.00
2192;BME280;1102;49.718;11.902;2023-04-08T00:35:04;96368.84;;;3.76;100.00
2192;BME280;1102;49.718;11.902;2023-04-08T00:37:30;96394.41;;;4.03;100.00
2192;BME280;1102;49.718;11.902;2023-04-08T00:39:57;96391.34;;;3.96;100.00
2192;BME280;1102;49.718;11.902;2023-04-08T00:42:24;96392.84;;;4.02;100.00
2192;BME280;1102;49.718;11.902;2023-04-08T00:44:51;96383.00;;;3.94;100.00
2192;BME280;1102;49.718;11.902;2023-04-08T00:47:17;96397.78;;;4.04;100.00
2192;BME280;1102;49.718;11.902;2023-04-08T00:49:44;96366.38;;;3.85;100.00
2192;BME280;1102;49.718;11.902;2023-04-08T00:52:11;96406.41;;;4.04;100.00
2192;BME280;1102;49.718;11.902;2023-04-08T00:54:38;96388.72;;;3.96;100.00
2192;BME280;1102;49.718;11.902;2023-04-08T00:57:05;96388.16;;;3.99;100.00
2192;BME280;1102;49.718;11.902;2023-04-08T00:59:33;96395.88;;;4.09;100.00
2192;BME280;1102;49.718;11.902;2023-04-08T01:02:20;96401.31;;;4.13;100.00
2192;BME280;1102;49.718;11.902;2023-04-08T01:05:05;96401.03;;;3.96;100.00
2192;BME280;1102;49.718;11.902;2023-04-08T01:07:34;96359.66;;;3.79;100.00
2192;BME280;1102;49.718;11.902;2023-04-08T01:10:08;96372.78;;;3.74;100.00
2192;BME280;1102;49.718;11.902;2023-04-08T01:12:41;96405.94;;;4.02;100.00
2192;BME280;1102;49.718;11.902;2023-04-08T01:15:10;96397.13;;;3.93;100.00
2192;BME280;1102;49.718;11.902;2023-04-08T01:17:37;96381.06;;;3.81;100.00
2192;BME280;1102;49.718;11.902;2023-04-08T01:20:06;96406.25;;;3.96;100.00
2192;BME280;1102;49.718;11.902;2023-04-08T01:22:57;96405.41;;;4.00;100.00
2192;BME280;1102;49.718;11.902;2023-04-08T01:25:34;96400.91;;;4.06;100.00
2192;BME280;1102;49.718;11.902;2023-04-08T01:28:09;96374.28;;;3.80;100.00
2192;BME280;1102;49.718;11.902;2023-04-08T01:30:40;96406.53;;;3.94;100.00
2192;BME280;1102;49.718;11.902;2023-04-08T01:33:11;96405.00;;;3.93;100.00
2192;BME280;1102;49.718;11.902;2023-04-08T01:35:38;96363.47;;;3.68;100.00
2192;BME280;1102;49.718;11.902;2023-04-08T01:38:08;96401.53;;;3.98;100.00
2192;BME280;1102;49.718;11.902;2023-04-08T01:40:37;96405.47;;;3.95;100.00
2192;BME280;1102;49.718;11.902;2023-04-08T01:43:07;96356.97;;;3.65;100.00
2192;BME280;1102;49.718;11.902;2023-04-08T01:45:37;96402.28;;;3.98;100.00
2192;BME280;1102;49.718;11.902;2023-04-08T01:48:04;96403.31;;;4.02;100.00
2192;BME280;1102;49.718;11.902;2023-04-08T01:50:33;96389.88;;;3.90;100.00
2192;BME280;1102;49.718;11.902;2023-04-08T01:53:01;96385.28;;;4.01;100.00
2192;BME280;1102;49.718;11.902;2023-04-08T01:55:32;96397.00;;;4.03;100.00
2192;BME280;1102;49.718;11.902;2023-04-08T01:57:59;96402.38;;;4.12;100.00
2192;BME280;1102;49.718;11.902;2023-04-08T02:00:29;96387.09;;;4.00;100.00
2192;BME280;1102;49.718;11.902;2023-04-08T02:02:57;96379.13;;;3.92;100.00
2192;BME280;1102;49.718;11.902;2023-04-08T02:05:25;96380.06;;;4.01;100.00
2192;BME280;1102;49.718;11.902;2023-04-08T02:07:52;96408.59;;;3.97;100.00
2192;BME280;1102;49.718;11.902;2023-04-08T02:10:19;96377.19;;;3.78;100.00
2192;BME280;1102;49.718;11.902;2023-04-08T02:12:46;96396.00;;;3.80;100.00
2192;BME280;1102;49.718;11.902;2023-04-08T02:15:13;96404.78;;;3.90;100.00
2192;BME280;1102;49.718;11.902;2023-04-08T02:17:49;96387.94;;;3.77;100.00
2192;BME280;1102;49.718;11.902;2023-04-08T02:20:38;96365.75;;;3.74;100.00
2192;BME280;1102;49.718;11.902;2023-04-08T02:23:18;96401.94;;;3.86;100.00
2192;BME280;1102;49.718;11.902;2023-04-08T02:25:46;96403.00;;;3.85;100.00
2192;BME280;1102;49.718;11.902;2023-04-08T02:28:14;96406.16;;;3.82;100.00
2192;BME280;1102;49.718;11.902;2023-04-08T02:30:47;96405.56;;;3.90;100.00
2192;BME280;1102;49.718;11.902;2023-04-08T02:33:18;96409.94;;;3.95;100.00
2192;BME280;1102;49.718;11.902;2023-04-08T02:35:47;96417.28;;;3.93;100.00
2192;BME280;1102;49.718;11.902;2023-04-08T02:38:14;96410.34;;;3.83;100.00
2192;BME280;1102;49.718;11.902;2023-04-08T02:40:42;96412.66;;;3.66;100.00
2192;BME280;1102;49.718;11.902;2023-04-08T02:43:08;96394.19;;;3.57;100.00
2192;BME280;1102;49.718;11.902;2023-04-08T02:45:41;96401.13;;;3.67;100.00
2192;BME280;1102;49.718;11.902;2023-04-08T02:48:09;96409.16;;;3.51;100.00
2192;BME280;1102;49.718;11.902;2023-04-08T02:50:36;96374.13;;;3.29;100.00
2192;BME280;1102;49.718;11.902;2023-04-08T02:53:03;96401.34;;;3.46;100.00
2192;BME280;1102;49.718;11.902;2023-04-08T02:55:31;96377.22;;;3.31;100.00
2192;BME280;1102;49.718;11.902;2023-04-08T02:57:58;96409.03;;;3.38;100.00
2192;BME280;1102;49.718;11.902;2023-04-08T03:00:25;96394.72;;;3.30;100.00
2192;BME280;1102;49.718;11.902;2023-04-08T03:02:52;96391.31;;;3.06;100.00
2192;BME280;1102;49.718;11.902;2023-04-08T03:05:19;96408.06;;;3.29;100.00
2192;BME280;1102;49.718;11.902;2023-04-08T03:07:45;96408.66;;;3.20;100.00
2192;BME280;1102;49.718;11.902;2023-04-08T03:10:12;96382.06;;;2.89;100.00
2192;BME280;1102;49.718;11.902;2023-04-08T03:12:39;96415.06;;;3.09;100.00
2192;BME280;1102;49.718;11.902;2023-04-08T03:15:06;96395.09;;;2.94;100.00
2192;BME280;1102;49.718;11.902;2023-04-08T03:17:33;96408.41;;;2.93;100.00
2192;BME280;1102;49.718;11.902;2023-04-08T03:20:00;96414.78;;;2.82;100.00
2192;BME280;1102;49.718;11.902;2023-04-08T03:22:30;96417.50;;;2.66;100.00
2192;BME280;1102;49.718;11.902;2023-04-08T03:24:57;96407.59;;;2.69;100.00
2192;BME280;1102;49.718;11.902;2023-04-08T03:27:23;96415.66;;;2.67;100.00
2192;BME280;1102;49.718;11.902;2023-04-08T03:29:50;96403.00;;;2.50;100.00
2192;BME280;1102;49.718;11.902;2023-04-08T03:32:18;96407.78;;;2.38;100.00
2192;BME280;1102;49.718;11.902;2023-04-08T03:34:45;96376.66;;;2.13;100.00
2192;BME280;1102;49.718;11.902;2023-04-08T03:37:12;96415.72;;;2.28;100.00
2192;BME280;1102;49.718;11.902;2023-04-08T03:39:38;96397.72;;;2.21;100.00
2192;BME280;1102;49.718;11.902;2023-04-08T03:42:05;96398.22;;;2.28;100.00
2192;BME280;1102;49.718;11.902;2023-04-08T03:44:31;96389.19;;;2.11;100.00
2192;BME280;1102;49.718;11.902;2023-04-08T03:46:58;96412.38;;;2.12;100.00
2192;BME280;1102;49.718;11.902;2023-04-08T03:49:25;96414.72;;;2.19;100.00
2192;BME280;1102;49.718;11.902;2023-04-08T03:51:51;96401.53;;;1.95;100.00
2192;BME280;1102;49.718;11.902;2023-04-08T03:54:18;96410.19;;;1.85;100.00
2192;BME280;1102;49.718;11.902;2023-04-08T03:56:45;96374.56;;;1.65;100.00
2192;BME280;1102;49.718;11.902;2023-04-08T03:59:11;96416.13;;;1.96;100.00
2192;BME280;1102;49.718;11.902;2023-04-08T04:01:38;96392.25;;;1.78;100.00
2192;BME280;1102;49.718;11.902;2023-04-08T04:04:07;96378.47;;;1.68;100.00
2192;BME280;1102;49.718;11.902;2023-04-08T04:06:34;96394.06;;;1.78;100.00
2192;BME280;1102;49.718;11.902;2023-04-08T04:09:01;96418.91;;;2.10;100.00
2192;BME280;1102;49.718;11.902;2023-04-08T04:11:27;96412.28;;;1.83;100.00
2192;BME280;1102;49.718;11.902;2023-04-08T04:13:54;96399.81;;;1.70;100.00
2192;BME280;1102;49.718;11.902;2023-04-08T04:16:21;96400.84;;;1.79;100.00
2192;BME280;1102;49.718;11.902;2023-04-08T04:18:48;96422.44;;;1.85;100.00
2192;BME280;1102;49.718;11.902;2023-04-08T04:21:15;96427.16;;;1.77;100.00
2192;BME280;1102;49.718;11.902;2023-04-08T04:23:42;96421.41;;;1.81;100.00
2192;BME280;1102;49.718;11.902;2023-04-08T04:26:08;96423.75;;;1.82;100.00
2192;BME280;1102;49.718;11.902;2023-04-08T04:28:36;96427.16;;;1.77;100.00
2192;BME280;1102;49.718;11.902;2023-04-08T04:31:03;96396.19;;;1.66;100.00
2192;BME280;1102;49.718;11.902;2023-04-08T04:33:30;96430.81;;;1.71;100.00
2192;BME280;1102;49.718;11.902;2023-04-08T04:35:57;96403.84;;;1.42;100.00
2192;BME280;1102;49.718;11.902;2023-04-08T04:38:24;96424.84;;;1.71;100.00
2192;BME280;1102;49.718;11.902;2023-04-08T04:40:51;96424.31;;;1.69;100.00
2192;BME280;1102;49.718;11.902;2023-04-08T04:43:18;96411.56;;;1.67;100.00
2192;BME280;1102;49.718;11.902;2023-04-08T04:45:44;96419.13;;;1.64;100.00
2192;BME280;1102;49.718;11.902;2023-04-08T04:48:11;96420.59;;;1.90;100.00
2192;BME280;1102;49.718;11.902;2023-04-08T04:50:38;96362.97;;;1.37;100.00
2192;BME280;1102;49.718;11.902;2023-04-08T04:53:04;96419.41;;;1.57;100.00
2192;BME280;1102;49.718;11.902;2023-04-08T04:55:31;96434.72;;;1.79;100.00
2192;BME280;1102;49.718;11.902;2023-04-08T04:57:58;96408.50;;;1.50;100.00
2192;BME280;1102;49.718;11.902;2023-04-08T05:00:24;96426.97;;;1.59;100.00
2192;BME280;1102;49.718;11.902;2023-04-08T05:02:51;96437.63;;;1.67;100.00
2192;BME280;1102;49.718;11.902;2023-04-08T05:05:18;96445.41;;;1.77;100.00
2192;BME280;1102;49.718;11.902;2023-04-08T05:07:45;96443.78;;;1.87;100.00
2192;BME280;1102;49.718;11.902;2023-04-08T05:10:11;96450.13;;;1.60;100.00
2192;BME280;1102;49.718;11.902;2023-04-08T05:12:38;96424.63;;;1.57;100.00
2192;BME280;1102;49.718;11.902;2023-04-08T05:15:05;96404.03;;;1.61;100.00
2192;BME280;1102;49.718;11.902;2023-04-08T05:17:32;96443.72;;;2.07;100.00
2192;BME280;1102;49.718;11.902;2023-04-08T05:19:59;96422.94;;;1.92;100.00
2192;BME280;1102;49.718;11.902;2023-04-08T05:22:26;96445.03;;;2.04;100.00
2192;BME280;1102;49.718;11.902;2023-04-08T05:24:52;96438.97;;;2.19;100.00
2192;BME280;1102;49.718;11.902;2023-04-08T05:27:19;96444.25;;;2.04;100.00
2192;BME280;1102;49.718;11.902;2023-04-08T05:29:47;96470.72;;;2.31;100.00
2192;BME280;1102;49.718;11.902;2023-04-08T05:32:14;96446.16;;;2.37;100.00
2192;BME280;1102;49.718;11.902;2023-04-08T05:34:43;96469.44;;;2.68;100.00
2192;BME280;1102;49.718;11.902;2023-04-08T05:37:10;96474.13;;;2.66;100.00
2192;BME280;1102;49.718;11.902;2023-04-08T05:39:36;96474.59;;;2.78;100.00
2192;BME280;1102;49.718;11.902;2023-04-08T05:42:03;96444.22;;;2.53;100.00
2192;BME280;1102;49.718;11.902;2023-04-08T05:44:30;96464.75;;;2.65;100.00
2192;BME280;1102;49.718;11.902;2023-04-08T05:46:57;96465.56;;;2.60;100.00
2192;BME280;1102;49.718;11.902;2023-04-08T05:49:24;96362.59;;;1.59;100.00
2192;BME280;1102;49.718;11.902;2023-04-08T05:54:17;96474.16;;;2.22;100.00
2192;BME280;1102;49.718;11.902;2023-04-08T05:56:44;96476.28;;;2.10;100.00
2192;BME280;1102;49.718;11.902;2023-04-08T05:59:11;96447.09;;;2.07;100.00
2192;BME280;1102;49.718;11.902;2023-04-08T06:01:38;96460.09;;;2.18;100.00
2192;BME280;1102;49.718;11.902;2023-04-08T06:04:05;96481.69;;;2.23;100.00
2192;BME280;1102;49.718;11.902;2023-04-08T06:06:32;96487.72;;;2.14;100.00
2192;BME280;1102;49.718;11.902;2023-04-08T06:08:59;96479.69;;;2.10;100.00
2192;BME280;1102;49.718;11.902;2023-04-08T06:11:26;96492.88;;;2.34;100.00
2192;BME280;1102;49.718;11.902;2023-04-08T06:13:52;96471.66;;;2.01;100.00
2192;BME280;1102;49.718;11.902;2023-04-08T06:16:19;96496.28;;;2.24;100.00
2192;BME280;1102;49.718;11.902;2023-04-08T06:18:47;96498.44;;;2.12;100.00
2192;BME280;1102;49.718;11.902;2023-04-08T06:21:14;96498.97;;;2.09;100.00
2192;BME280;1102;49.718;11.902;2023-04-08T06:23:41;96505.44;;;2.22;100.00
2192;BME280;1102;49.718;11.902;2023-04-08T06:26:08;96476.06;;;2.06;100.00
2192;BME280;1102;49.718;11.902;2023-04-08T06:28:35;96495.84;;;2.12;100.00
2192;BME280;1102;49.718;11.902;2023-04-08T06:31:01;96478.75;;;1.81;100.00
2192;BME280;1102;49.718;11.902;2023-04-08T06:33:28;96445.19;;;1.74;100.00
2192;BME280;1102;49.718;11.902;2023-04-08T06:36:05;96493.03;;;1.98;100.00
2192;BME280;1102;49.718;11.902;2023-04-08T06:38:33;96510.50;;;1.98;100.00
2192;BME280;1102;49.718;11.902;2023-04-08T06:41:06;96508.16;;;2.01;100.00
2192;BME280;1102;49.718;11.902;2023-04-08T06:43:34;96492.97;;;2.08;100.00
2192;BME280;1102;49.718;11.902;2023-04-08T06:46:02;96473.41;;;2.11;100.00
2192;BME280;1102;49.718;11.902;2023-04-08T06:48:29;96491.88;;;2.25;100.00
2192;BME280;1102;49.718;11.902;2023-04-08T06:50:56;96493.69;;;2.24;100.00
2192;BME280;1102;49.718;11.902;2023-04-08T06:53:24;96493.97;;;2.23;100.00
2192;BME280;1102;49.718;11.902;2023-04-08T06:55:51;96498.91;;;2.29;100.00
2192;BME280;1102;49.718;11.902;2023-04-08T06:58:17;96515.25;;;2.40;100.00
2192;BME280;1102;49.718;11.902;2023-04-08T07:00:44;96519.69;;;2.45;100.00
2192;BME280;1102;49.718;11.902;2023-04-08T07:03:11;96496.28;;;2.29;100.00
2192;BME280;1102;49.718;11.902;2023-04-08T07:05:38;96509.03;;;2.36;100.00
2192;BME280;1102;49.718;11.902;2023-04-08T07:08:05;96506.69;;;2.34;100.00
2192;BME280;1102;49.718;11.902;2023-04-08T07:10:33;96533.22;;;2.52;100.00
2192;BME280;1102;49.718;11.902;2023-04-08T07:13:00;96517.56;;;2.52;100.00
2192;BME280;1102;49.718;11.902;2023-04-08T07:15:27;96483.19;;;2.40;100.00
2192;BME280;1102;49.718;11.902;2023-04-08T07:17:54;96530.47;;;2.77;100.00
2192;BME280;1102;49.718;11.902;2023-04-08T07:20:25;96535.91;;;2.86;100.00
2192;BME280;1102;49.718;11.902;2023-04-08T07:22:52;96530.13;;;2.89;100.00
2192;BME280;1102;49.718;11.902;2023-04-08T07:25:19;96539.72;;;2.99;100.00
2192;BME280;1102;49.718;11.902;2023-04-08T07:27:45;96519.44;;;2.85;100.00
2192;BME280;1102;49.718;11.902;2023-04-08T07:30:12;96531.94;;;2.88;100.00
2192;BME280;1102;49.718;11.902;2023-04-08T07:32:39;96551.22;;;2.97;100.00
2192;BME280;1102;49.718;11.902;2023-04-08T07:35:06;96555.22;;;2.85;100.00
2192;BME280;1102;49.718;11.902;2023-04-08T07:37:33;96552.78;;;2.99;100.00
2192;BME280;1102;49.718;11.902;2023-04-08T07:40:00;96546.38;;;2.81;100.00
2192;BME280;1102;49.718;11.902;2023-04-08T07:42:27;96530.22;;;2.74;100.00
2192;BME280;1102;49.718;11.902;2023-04-08T07:44:54;96557.31;;;2.83;100.00
2192;BME280;1102;49.718;11.902;2023-04-08T07:47:21;96538.00;;;2.79;100.00
2192;BME280;1102;49.718;11.902;2023-04-08T07:49:48;96530.47;;;2.77;100.00
2192;BME280;1102;49.718;11.902;2023-04-08T07:52:15;96537.72;;;2.85;100.00
2192;BME280;1102;49.718;11.902;2023-04-08T07:54:42;96554.44;;;2.84;100.00
2192;BME280;1102;49.718;11.902;2023-04-08T07:57:08;96531.75;;;2.80;100.00
2192;BME280;1102;49.718;11.902;2023-04-08T07:59:35;96563.22;;;2.99;100.00
2192;BME280;1102;49.718;11.902;2023-04-08T08:02:02;96541.84;;;2.91;100.00
2192;BME280;1102;49.718;11.902;2023-04-08T08:04:29;96540.78;;;2.97;100.00
2192;BME280;1102;49.718;11.902;2023-04-08T08:06:56;96546.72;;;3.08;100.00
2192;BME280;1102;49.718;11.902;2023-04-08T08:09:23;96554.06;;;3.01;100.00
2192;BME280;1102;49.718;11.902;2023-04-08T08:11:50;96528.28;;;2.94;100.00
2192;BME280;1102;49.718;11.902;2023-04-08T08:14:16;96562.84;;;3.15;100.00
2192;BME280;1102;49.718;11.902;2023-04-08T08:16:43;96566.38;;;3.35;100.00
2192;BME280;1102;49.718;11.902;2023-04-08T08:19:10;96572.06;;;3.42;100.00
2192;BME280;1102;49.718;11.902;2023-04-08T08:21:38;96574.28;;;3.24;100.00
2192;BME280;1102;49.718;11.902;2023-04-08T08:24:07;96545.69;;;3.04;100.00
2192;BME280;1102;49.718;11.902;2023-04-08T08:26:34;96545.81;;;3.23;100.00
2192;BME280;1102;49.718;11.902;2023-04-08T08:29:04;96552.25;;;3.36;100.00
2192;BME280;1102;49.718;11.902;2023-04-08T08:31:34;96559.34;;;3.59;100.00
2192;BME280;1102;49.718;11.902;2023-04-08T08:34:00;96549.34;;;3.95;100.00
2192;BME280;1102;49.718;11.902;2023-04-08T08:36:27;96580.66;;;4.00;100.00
2192;BME280;1102;49.718;11.902;2023-04-08T08:38:54;96567.03;;;3.79;100.00
2192;BME280;1102;49.718;11.902;2023-04-08T08:41:21;96576.28;;;3.96;100.00
2192;BME280;1102;49.718;11.902;2023-04-08T08:43:48;96565.25;;;3.75;100.00
2192;BME280;1102;49.718;11.902;2023-04-08T08:46:16;96583.34;;;3.95;100.00
2192;BME280;1102;49.718;11.902;2023-04-08T08:48:45;96584.75;;;3.88;100.00
2192;BME280;1102;49.718;11.902;2023-04-08T08:51:12;96576.09;;;3.87;100.00
2192;BME280;1102;49.718;11.902;2023-04-08T08:53:39;96601.47;;;4.15;100.00
2192;BME280;1102;49.718;11.902;2023-04-08T08:56:10;96598.09;;;4.10;100.00
2192;BME280;1102;49.718;11.902;2023-04-08T08:58:40;96576.94;;;4.06;100.00
2192;BME280;1102;49.718;11.902;2023-04-08T09:01:35;96605.19;;;4.57;100.00
2192;BME280;1102;49.718;11.902;2023-04-08T09:04:14;96580.69;;;4.24;100.00
2192;BME280;1102;49.718;11.902;2023-04-08T09:06:46;96605.69;;;4.35;100.00
2192;BME280;1102;49.718;11.902;2023-04-08T09:09:16;96582.69;;;4.32;100.00
2192;BME280;1102;49.718;11.902;2023-04-08T09:11:46;96611.38;;;4.42;100.00
2192;BME280;1102;49.718;11.902;2023-04-08T09:14:23;96587.25;;;4.22;100.00
2192;BME280;1102;49.718;11.902;2023-04-08T09:16:51;96593.16;;;4.32;100.00
2192;BME280;1102;49.718;11.902;2023-04-08T09:19:18;96616.03;;;4.69;100.00
2192;BME280;1102;49.718;11.902;2023-04-08T09:22:03;96626.72;;;4.73;100.00
2192;BME280;1102;49.718;11.902;2023-04-08T09:24:30;96607.88;;;4.71;100.00
2192;BME280;1102;49.718;11.902;2023-04-08T09:26:57;96602.66;;;4.71;100.00
2192;BME280;1102;49.718;11.902;2023-04-08T09:29:24;96624.69;;;4.89;100.00
2192;BME280;1102;49.718;11.902;2023-04-08T09:31:57;96635.66;;;4.91;100.00
2192;BME280;1102;49.718;11.902;2023-04-08T09:34:24;96625.94;;;4.72;100.00
2192;BME280;1102;49.718;11.902;2023-04-08T09:36:53;96644.66;;;4.85;100.00
2192;BME280;1102;49.718;11.902;2023-04-08T09:39:21;96621.13;;;4.80;100.00
2192;BME280;1102;49.718;11.902;2023-04-08T09:41:49;96630.28;;;4.82;100.00
2192;BME280;1102;49.718;11.902;2023-04-08T09:44:18;96618.75;;;4.83;100.00
2192;BME280;1102;49.718;11.902;2023-04-08T09:49:29;96643.53;;;5.10;100.00
2192;BME280;1102;49.718;11.902;2023-04-08T09:52:10;96593.44;;;4.73;100.00
2192;BME280;1102;49.718;11.902;2023-04-08T09:54:59;96654.00;;;4.91;100.00
2192;BME280;1102;49.718;11.902;2023-04-08T09:57:40;96609.16;;;4.73;100.00
2192;BME280;1102;49.718;11.902;2023-04-08T10:00:13;96650.91;;;5.08;100.00
2192;BME280;1102;49.718;11.902;2023-04-08T10:03:09;96646.00;;;5.20;100.00
2192;BME280;1102;49.718;11.902;2023-04-08T10:05:40;96643.75;;;5.32;100.00
2192;BME280;1102;49.718;11.902;2023-04-08T10:08:09;96631.50;;;5.27;100.00
2192;BME280;1102;49.718;11.902;2023-04-08T10:10:38;96644.25;;;5.53;100.00
2192;BME280;1102;49.718;11.902;2023-04-08T10:13:08;96643.47;;;5.52;100.00
2192;BME280;1102;49.718;11.902;2023-04-08T10:15:36;96622.84;;;5.27;100.00
2192;BME280;1102;49.718;11.902;2023-04-08T10:23:10;96641.28;;;5.22;100.00
2192;BME280;1102;49.718;11.902;2023-04-08T10:25:42;96656.84;;;5.32;100.00
2192;BME280;1102;49.718;11.902;2023-04-08T10:30:38;96652.53;;;5.41;100.00
2192;BME280;1102;49.718;11.902;2023-04-08T10:36:11;96653.94;;;5.33;100.00
2192;BME280;1102;49.718;11.902;2023-04-08T10:38:39;96631.69;;;5.31;100.00
2192;BME280;1102;49.718;11.902;2023-04-08T10:41:10;96647.72;;;5.48;100.00
2192;BME280;1102;49.718;11.902;2023-04-08T10:43:46;96642.25;;;5.45;100.00
2192;BME280;1102;49.718;11.902;2023-04-08T10:46:13;96656.06;;;5.50;100.00
2192;BME280;1102;49.718;11.902;2023-04-08T10:48:40;96623.91;;;5.26;100.00
2192;BME280;1102;49.718;11.902;2023-04-08T10:51:07;96658.22;;;5.48;100.00
2192;BME280;1102;49.718;11.902;2023-04-08T10:53:36;96647.19;;;5.46;100.00
2192;BME280;1102;49.718;11.902;2023-04-08T10:56:08;96640.13;;;5.47;100.00
2192;BME280;1102;49.718;11.902;2023-04-08T10:58:46;96665.47;;;5.70;100.00
2192;BME280;1102;49.718;11.902;2023-04-08T11:01:14;96641.63;;;5.53;100.00
2192;BME280;1102;49.718;11.902;2023-04-08T11:03:41;96657.13;;;5.68;100.00
2192;BME280;1102;49.718;11.902;2023-04-08T11:06:08;96668.63;;;5.86;100.00
2192;BME280;1102;49.718;11.902;2023-04-08T11:08:35;96659.00;;;5.81;100.00
2192;BME280;1102;49.718;11.902;2023-04-08T11:11:04;96639.22;;;5.89;100.00
2192;BME280;1102;49.718;11.902;2023-04-08T11:13:45;96632.09;;;5.76;100.00
2192;BME280;1102;49.718;11.902;2023-04-08T11:16:22;96624.22;;;5.76;100.00
2192;BME280;1102;49.718;11.902;2023-04-08T11:18:50;96677.88;;;6.02;100.00
2192;BME280;1102;49.718;11.902;2023-04-08T11:21:17;96644.34;;;5.80;100.00
2192;BME280;1102;49.718;11.902;2023-04-08T11:23:43;96673.09;;;5.85;100.00
2192;BME280;1102;49.718;11.902;2023-04-08T11:26:10;96675.53;;;5.82;100.00
2192;BME280;1102;49.718;11.902;2023-04-08T11:28:37;96683.25;;;5.73;100.00
2192;BME280;1102;49.718;11.902;2023-04-08T11:31:04;96678.34;;;5.85;100.00
2192;BME280;1102;49.718;11.902;2023-04-08T11:33:32;96648.91;;;5.56;100.00
2192;BME280;1102;49.718;11.902;2023-04-08T11:36:00;96657.44;;;5.48;100.00
2192;BME280;1102;49.718;11.902;2023-04-08T11:38:27;96677.91;;;5.64;100.00
2192;BME280;1102;49.718;11.902;2023-04-08T11:40:56;96683.34;;;5.68;100.00
2192;BME280;1102;49.718;11.902;2023-04-08T11:43:24;96663.72;;;5.66;100.00
2192;BME280;1102;49.718;11.902;2023-04-08T11:45:54;96658.03;;;5.77;100.00
2192;BME280;1102;49.718;11.902;2023-04-08T11:48:21;96685.94;;;5.87;100.00
2192;BME280;1102;49.718;11.902;2023-04-08T11:51:01;96685.50;;;5.99;100.00
2192;BME280;1102;49.718;11.902;2023-04-08T11:53:28;96667.25;;;5.93;100.00
2192;BME280;1102;49.718;11.902;2023-04-08T11:55:55;96683.22;;;6.11;100.00
2192;BME280;1102;49.718;11.902;2023-04-08T11:58:22;96666.94;;;5.95;100.00
2192;BME280;1102;49.718;11.902;2023-04-08T12:00:48;96657.72;;;5.98;100.00
2192;BME280;1102;49.718;11.902;2023-04-08T12:03:16;96659.41;;;6.07;100.00
2192;BME280;1102;49.718;11.902;2023-04-08T12:05:43;96653.69;;;6.19;100.00
2192;BME280;1102;49.718;11.902;2023-04-08T12:08:09;96677.72;;;6.40;100.00
2192;BME280;1102;49.718;11.902;2023-04-08T12:10:36;96636.66;;;6.03;100.00
2192;BME280;1102;49.718;11.902;2023-04-08T12:13:03;96660.38;;;6.25;100.00
2192;BME280;1102;49.718;11.902;2023-04-08T12:15:29;96670.03;;;6.30;100.00
2192;BME280;1102;49.718;11.902;2023-04-08T12:17:56;96661.41;;;6.57;100.00
2192;BME280;1102;49.718;11.902;2023-04-08T12:20:23;96664.06;;;7.20;100.00
2192;BME280;1102;49.718;11.902;2023-04-08T12:22:49;96682.81;;;7.77;100.00
2192;BME280;1102;49.718;11.902;2023-04-08T12:25:16;96669.59;;;7.32;100.00
2192;BME280;1102;49.718;11.902;2023-04-08T12:27:43;96661.19;;;6.94;100.00
2192;BME280;1102;49.718;11.902;2023-04-08T12:30:10;96684.94;;;6.89;100.00
2192;BME280;1102;49.718;11.902;2023-04-08T12:32:37;96667.16;;;6.86;100.00
2192;BME280;1102;49.718;11.902;2023-04-08T12:35:04;96668.22;;;6.85;100.00
2192;BME280;1102;49.718;11.902;2023-04-08T12:37:31;96674.63;;;6.65;100.00
2192;BME280;1102;49.718;11.902;2023-04-08T12:39:59;96675.31;;;6.57;100.00
2192;BME280;1102;49.718;11.902;2023-04-08T12:42:25;96654.59;;;6.56;100.00
2192;BME280;1102;49.718;11.902;2023-04-08T12:44:53;96680.34;;;6.53;100.00
2192;BME280;1102;49.718;11.902;2023-04-08T12:47:20;96713.06;;;6.61;100.00
2192;BME280;1102;49.718;11.902;2023-04-08T12:49:48;96694.69;;;6.61;100.00
2192;BME280;1102;49.718;11.902;2023-04-08T12:52:15;96702.69;;;6.70;100.00
2192;BME280;1102;49.718;11.902;2023-04-08T12:54:43;96679.03;;;6.56;100.00
2192;BME280;1102;49.718;11.902;2023-04-08T12:57:09;96661.41;;;6.43;100.00
2192;BME280;1102;49.718;11.902;2023-04-08T12:59:36;96676.38;;;6.29;100.00
2192;BME280;1102;49.718;11.902;2023-04-08T13:02:05;96693.38;;;5.99;100.00
2192;BME280;1102;49.718;11.902;2023-04-08T13:04:33;96721.72;;;6.02;100.00
2192;BME280;1102;49.718;11.902;2023-04-08T13:07:00;96713.91;;;5.97;100.00
2192;BME280;1102;49.718;11.902;2023-04-08T13:09:27;96691.66;;;5.56;100.00
2192;BME280;1102;49.718;11.902;2023-04-08T13:11:55;96679.44;;;5.66;100.00
2192;BME280;1102;49.718;11.902;2023-04-08T13:14:24;96669.25;;;5.64;100.00
2192;BME280;1102;49.718;11.902;2023-04-08T13:16:51;96692.59;;;5.98;100.00
2192;BME280;1102;49.718;11.902;2023-04-08T13:19:17;96679.72;;;6.02;100.00
2192;BME280;1102;49.718;11.902;2023-04-08T13:21:44;96672.94;;;6.14;100.00
2192;BME280;1102;49.718;11.902;2023-04-08T13:24:11;96654.63;;;6.09;100.00
2192;BME280;1102;49.718;11.902;2023-04-08T13:26:38;96677.41;;;6.28;100.00
2192;BME280;1102;49.718;11.902;2023-04-08T13:29:05;96721.22;;;6.46;100.00
2192;BME280;1102;49.718;11.902;2023-04-08T13:31:32;96671.13;;;6.42;100.00